Time;durP1;ratioP1;P1;durP2;ratioP2;P2;SDS_P1;SDS_P2;PMS_P1;PMS_P2;Temp;Humidity;BMP_temperature;BMP_pressure;BME280_temperature;BME280_humidity;BME280_pressure;Samples;Min_cycle;Max_cycle;Signal;HPM_P1;HPM_P2
2021/06/24 00:01:25;;;;;;;0.55;0.50;;;15.90;71.60;;;;;;4958510;28;20051;-77
2021/06/24 00:03:50;;;;;;;2.05;0.70;;;15.80;71.60;;;;;;4940861;28;20409;-76
2021/06/24 00:06:16;;;;;;;0.75;0.43;;;15.80;71.60;;;;;;4939299;29;20031;-76
2021/06/24 00:08:42;;;;;;;0.50;0.50;;;15.70;71.70;;;;;;4939440;28;20035;-77
2021/06/24 00:11:09;;;;;;;0.40;0.40;;;15.70;71.70;;;;;;4966039;28;20058;-76
2021/06/24 00:13:36;;;;;;;0.40;0.40;;;15.70;71.80;;;;;;4942315;28;20032;-76
2021/06/24 00:16:02;;;;;;;0.40;0.40;;;15.70;71.90;;;;;;4955399;28;20122;-76
2021/06/24 00:18:29;;;;;;;1.27;0.50;;;15.70;71.80;;;;;;4971213;28;20464;-76
2021/06/24 00:20:55;;;;;;;0.55;0.55;;;15.70;71.90;;;;;;4956545;28;20471;-76
2021/06/24 00:23:21;;;;;;;0.32;0.32;;;15.70;71.90;;;;;;4957116;28;20047;-76
2021/06/24 00:25:47;;;;;;;0.50;0.50;;;15.70;71.90;;;;;;4950775;28;20057;-76
2021/06/24 00:28:15;;;;;;;0.90;0.57;;;15.70;71.90;;;;;;4959808;28;20126;-77
2021/06/24 00:30:42;;;;;;;0.30;0.30;;;15.60;71.80;;;;;;4954513;28;20059;-76
2021/06/24 00:33:08;;;;;;;1.55;0.63;;;15.60;71.80;;;;;;4954914;28;20105;-76
2021/06/24 00:35:34;;;;;;;0.60;0.47;;;15.60;71.80;;;;;;4954852;28;20502;-76
2021/06/24 00:37:59;;;;;;;0.45;0.40;;;15.60;71.90;;;;;;4956725;28;20053;-76
2021/06/24 00:40:25;;;;;;;0.30;0.30;;;15.60;72.00;;;;;;4969759;28;20039;-76
2021/06/24 00:42:52;;;;;;;1.15;0.50;;;15.60;72.00;;;;;;4938353;29;20043;-76
2021/06/24 00:45:18;;;;;;;0.50;0.50;;;15.60;72.00;;;;;;4950308;28;20500;-76
2021/06/24 00:47:43;;;;;;;0.40;0.40;;;15.50;72.00;;;;;;4958444;28;20098;-76
2021/06/24 00:50:11;;;;;;;0.30;0.30;;;15.50;72.00;;;;;;4953520;28;20039;-76
2021/06/24 00:52:37;;;;;;;0.68;0.60;;;15.40;72.00;;;;;;4964161;28;20051;-76
2021/06/24 00:55:04;;;;;;;0.50;0.40;;;15.60;72.10;;;;;;4969423;28;20035;-76
2021/06/24 00:57:32;;;;;;;0.80;0.47;;;15.60;72.10;;;;;;4952763;28;20074;-76
2021/06/24 00:59:58;;;;;;;0.60;0.43;;;15.60;72.10;;;;;;4953611;28;20044;-76
2021/06/24 01:02:24;;;;;;;0.50;0.40;;;15.60;72.10;;;;;;4936814;28;20047;-76
2021/06/24 01:04:50;;;;;;;0.85;0.40;;;15.60;72.10;;;;;;4961713;28;20370;-77
2021/06/24 01:07:17;;;;;;;0.63;0.45;;;15.60;72.10;;;;;;4936183;28;20071;-77
2021/06/24 01:09:42;;;;;;;0.80;0.50;;;15.60;72.10;;;;;;4962305;28;20142;-77
2021/06/24 01:12:10;;;;;;;1.98;0.50;;;15.50;72.20;;;;;;4962462;28;20227;-76
2021/06/24 01:14:36;;;;;;;0.47;0.45;;;15.50;72.30;;;;;;4954536;28;20051;-76
2021/06/24 01:17:03;;;;;;;0.80;0.60;;;15.40;72.40;;;;;;4968271;28;20039;-76
2021/06/24 01:19:29;;;;;;;0.45;0.40;;;15.40;72.40;;;;;;4938486;28;20044;-76
2021/06/24 01:21:56;;;;;;;0.85;0.57;;;15.50;72.50;;;;;;4954305;28;20122;-76
2021/06/24 01:24:23;;;;;;;0.40;0.40;;;15.40;72.40;;;;;;4964677;28;20182;-76
2021/06/24 01:26:48;;;;;;;0.50;0.50;;;15.40;72.40;;;;;;4959488;28;20044;-76
2021/06/24 01:29:15;;;;;;;0.47;0.47;;;15.50;72.50;;;;;;4970757;28;20074;-76
2021/06/24 01:31:41;;;;;;;0.52;0.52;;;15.40;72.40;;;;;;4971892;28;20354;-76
2021/06/24 01:34:10;;;;;;;0.98;0.47;;;15.40;72.40;;;;;;4941493;28;20049;-76
2021/06/24 01:36:36;;;;;;;0.40;0.40;;;15.40;72.40;;;;;;4958338;28;20051;-76
2021/06/24 01:39:05;;;;;;;0.63;0.40;;;15.30;72.50;;;;;;4970122;28;20915;-76
2021/06/24 01:41:30;;;;;;;0.40;0.40;;;15.30;72.50;;;;;;4955386;28;20047;-73
2021/06/24 01:43:56;;;;;;;0.40;0.40;;;15.40;72.70;;;;;;4955601;28;20054;-77
2021/06/24 01:46:22;;;;;;;0.55;0.50;;;15.30;72.70;;;;;;4972299;28;20045;-77
2021/06/24 01:48:48;;;;;;;0.32;0.32;;;15.30;72.70;;;;;;4940632;28;20118;-76
2021/06/24 01:51:14;;;;;;;0.40;0.40;;;15.30;72.80;;;;;;4975713;28;20530;-76
2021/06/24 01:53:39;;;;;;;0.40;0.40;;;15.20;72.70;;;;;;4977631;28;20035;-76
2021/06/24 01:56:06;;;;;;;1.48;0.52;;;15.20;72.70;;;;;;4972008;28;20113;-76
2021/06/24 01:58:31;;;;;;;0.30;0.30;;;15.20;72.70;;;;;;4958666;28;20046;-75
2021/06/24 02:01:00;;;;;;;0.40;0.40;;;15.30;72.70;;;;;;4958336;28;20138;-76
2021/06/24 02:03:27;;;;;;;0.50;0.50;;;15.30;72.70;;;;;;4960730;28;20609;-76
2021/06/24 02:05:56;;;;;;;0.63;0.60;;;15.20;72.60;;;;;;4958416;28;20062;-75
2021/06/24 02:08:24;;;;;;;1.15;0.45;;;15.20;72.60;;;;;;4955826;28;20039;-76
2021/06/24 02:10:50;;;;;;;0.90;0.50;;;15.20;72.70;;;;;;4939634;29;20490;-76
2021/06/24 02:13:17;;;;;;;0.60;0.60;;;15.20;72.70;;;;;;4965737;28;20465;-76
2021/06/24 02:15:43;;;;;;;1.35;0.60;;;15.20;72.80;;;;;;4962082;28;20046;-76
2021/06/24 02:18:09;;;;;;;1.08;0.60;;;15.20;72.80;;;;;;4941805;28;20070;-76
2021/06/24 02:20:36;;;;;;;0.50;0.50;;;15.20;72.90;;;;;;4975899;28;20492;-76
2021/06/24 02:23:02;;;;;;;0.40;0.40;;;15.10;72.90;;;;;;4969880;28;20039;-77
2021/06/24 02:25:28;;;;;;;1.25;0.60;;;15.20;72.90;;;;;;4956337;28;20051;-76
2021/06/24 02:27:55;;;;;;;0.50;0.50;;;15.10;72.90;;;;;;4970055;28;20074;-76
2021/06/24 02:30:22;;;;;;;0.50;0.40;;;15.20;73.00;;;;;;4958919;28;20043;-76
2021/06/24 02:32:48;;;;;;;0.75;0.50;;;15.10;72.90;;;;;;4971294;28;20539;-76
2021/06/24 02:35:15;;;;;;;0.45;0.45;;;15.10;73.00;;;;;;4973782;28;20070;-76
2021/06/24 02:37:42;;;;;;;1.38;0.50;;;15.10;72.90;;;;;;4970937;28;20047;-76
2021/06/24 02:40:10;;;;;;;1.40;0.50;;;15.10;73.00;;;;;;4969993;28;20059;-76
2021/06/24 02:42:36;;;;;;;0.65;0.40;;;15.10;72.90;;;;;;4957170;28;20046;-76
2021/06/24 02:45:04;;;;;;;1.65;0.50;;;15.10;72.90;;;;;;4970587;28;20485;-76
2021/06/24 02:47:30;;;;;;;0.70;0.60;;;15.10;72.90;;;;;;4954660;28;20078;-74
2021/06/24 02:49:55;;;;;;;2.08;0.40;;;15.10;73.00;;;;;;4969946;28;20137;-77
2021/06/24 02:52:21;;;;;;;0.55;0.50;;;15.00;72.90;;;;;;4938431;29;20043;-78
2021/06/24 02:54:47;;;;;;;0.40;0.40;;;15.00;73.00;;;;;;4957527;28;20047;-76
2021/06/24 02:57:12;;;;;;;0.60;0.50;;;15.10;73.10;;;;;;4970183;28;20124;-76
2021/06/24 02:59:38;;;;;;;0.38;0.38;;;15.00;73.10;;;;;;4955971;28;20043;-75
2021/06/24 03:02:05;;;;;;;1.38;0.70;;;15.00;73.20;;;;;;4970119;28;20049;-76
2021/06/24 03:04:31;;;;;;;0.60;0.47;;;15.00;73.20;;;;;;4953101;28;20133;-76
2021/06/24 03:06:56;;;;;;;0.50;0.50;;;15.00;73.20;;;;;;4940125;28;20082;-75
2021/06/24 03:09:22;;;;;;;0.60;0.50;;;15.00;73.30;;;;;;4953336;28;20388;-76
2021/06/24 03:11:48;;;;;;;0.82;0.50;;;15.00;73.40;;;;;;4955008;28;20537;-76
2021/06/24 03:14:14;;;;;;;0.45;0.45;;;14.90;73.40;;;;;;4968856;28;20035;-73
2021/06/24 03:16:41;;;;;;;0.57;0.57;;;14.90;73.40;;;;;;4937621;28;20058;-76
2021/06/24 03:19:07;;;;;;;0.60;0.55;;;14.90;73.40;;;;;;4954241;28;20050;-73
2021/06/24 03:21:33;;;;;;;1.08;0.47;;;14.90;73.50;;;;;;4954563;28;20046;-75
2021/06/24 03:23:59;;;;;;;0.50;0.50;;;14.90;73.60;;;;;;4937162;28;20055;-76
2021/06/24 03:26:24;;;;;;;0.85;0.50;;;14.80;73.60;;;;;;4955449;28;20094;-76
2021/06/24 03:28:50;;;;;;;0.63;0.63;;;14.90;73.70;;;;;;4969654;28;20037;-75
2021/06/24 03:31:16;;;;;;;0.60;0.60;;;14.90;73.70;;;;;;4957386;28;20478;-76
2021/06/24 03:33:42;;;;;;;0.52;0.52;;;14.90;73.70;;;;;;4954501;28;20119;-76
2021/06/24 03:36:08;;;;;;;0.75;0.60;;;14.80;73.70;;;;;;4955549;28;20456;-76
2021/06/24 03:38:34;;;;;;;0.50;0.50;;;14.80;73.90;;;;;;4955516;28;20126;-76
2021/06/24 03:41:00;;;;;;;0.50;0.50;;;14.70;73.80;;;;;;4971957;28;20129;-75
2021/06/24 03:43:26;;;;;;;0.70;0.68;;;14.80;73.90;;;;;;4969870;28;20039;-76
2021/06/24 03:45:52;;;;;;;0.50;0.50;;;14.70;73.90;;;;;;4935799;28;20046;-76
2021/06/24 03:48:17;;;;;;;0.50;0.50;;;14.70;73.90;;;;;;4970832;28;20442;-76
2021/06/24 03:50:43;;;;;;;0.40;0.40;;;14.80;74.60;;;;;;4936889;28;20501;-76
2021/06/24 03:53:09;;;;;;;0.70;0.55;;;14.80;74.00;;;;;;4955310;28;20046;-76
2021/06/24 03:55:36;;;;;;;0.40;0.40;;;14.80;74.00;;;;;;4954969;28;20564;-76
2021/06/24 03:58:03;;;;;;;0.85;0.50;;;14.70;73.90;;;;;;4937005;28;20059;-76
2021/06/24 04:00:29;;;;;;;0.50;0.50;;;14.80;74.00;;;;;;4970282;28;20042;-76
2021/06/24 04:02:55;;;;;;;0.65;0.43;;;14.70;73.90;;;;;;4955950;28;20074;-76
2021/06/24 04:05:20;;;;;;;0.50;0.50;;;14.70;73.90;;;;;;4969029;28;20047;-76
2021/06/24 04:07:46;;;;;;;0.70;0.60;;;14.80;74.00;;;;;;4937591;29;20432;-76
2021/06/24 04:10:13;;;;;;;0.40;0.40;;;14.70;73.90;;;;;;4955364;28;20501;-76
2021/06/24 04:12:39;;;;;;;0.82;0.70;;;14.70;73.90;;;;;;4967534;28;20117;-76
2021/06/24 04:15:06;;;;;;;0.30;0.30;;;14.70;73.90;;;;;;4958389;28;20044;-76
2021/06/24 04:17:31;;;;;;;0.43;0.43;;;14.80;74.00;;;;;;4957328;28;20047;-76
2021/06/24 04:19:57;;;;;;;0.75;0.45;;;14.80;74.00;;;;;;4954879;28;20049;-76
2021/06/24 04:22:23;;;;;;;0.40;0.40;;;14.80;73.90;;;;;;4956039;28;20066;-76
2021/06/24 04:24:49;;;;;;;0.50;0.50;;;14.80;73.90;;;;;;4973396;28;20050;-76
2021/06/24 04:27:14;;;;;;;0.55;0.50;;;14.80;73.90;;;;;;4971500;28;20054;-76
2021/06/24 04:29:40;;;;;;;0.32;0.32;;;14.80;73.90;;;;;;4973614;28;20448;-76
2021/06/24 04:32:06;;;;;;;0.73;0.55;;;14.80;73.90;;;;;;4973505;28;20374;-76
2021/06/24 04:34:32;;;;;;;0.50;0.50;;;14.80;73.80;;;;;;4965960;28;20042;-76
2021/06/24 04:36:58;;;;;;;0.57;0.50;;;14.90;73.80;;;;;;4971610;28;20046;-76
2021/06/24 04:39:24;;;;;;;0.70;0.70;;;14.90;73.80;;;;;;4939521;28;20186;-76
2021/06/24 04:41:50;;;;;;;0.50;0.50;;;15.00;73.90;;;;;;4972627;28;20110;-76
2021/06/24 04:44:16;;;;;;;0.70;0.50;;;15.00;73.80;;;;;;4947146;28;20049;-76
2021/06/24 04:46:41;;;;;;;0.47;0.38;;;15.00;73.80;;;;;;4971602;28;20105;-73
2021/06/24 04:49:07;;;;;;;0.85;0.70;;;15.00;73.80;;;;;;4972542;28;20405;-76
2021/06/24 04:51:33;;;;;;;1.67;0.65;;;15.10;73.80;;;;;;4972437;28;20038;-76
2021/06/24 04:53:58;;;;;;;0.57;0.50;;;15.00;73.70;;;;;;4973415;28;20042;-76
2021/06/24 04:56:24;;;;;;;0.45;0.40;;;15.10;73.80;;;;;;4973021;28;20050;-76
2021/06/24 04:58:50;;;;;;;0.50;0.50;;;15.20;73.80;;;;;;4978109;28;20062;-76
2021/06/24 05:01:15;;;;;;;0.85;0.47;;;15.10;73.80;;;;;;4943894;28;20552;-76
2021/06/24 05:03:41;;;;;;;1.10;0.47;;;15.00;73.60;;;;;;4955392;28;20048;-76
2021/06/24 05:06:09;;;;;;;0.57;0.55;;;15.10;73.70;;;;;;4956455;28;20063;-76
2021/06/24 05:08:35;;;;;;;0.60;0.60;;;15.10;73.70;;;;;;4970018;28;20066;-76
2021/06/24 05:11:01;;;;;;;0.40;0.40;;;15.10;73.70;;;;;;4966683;28;20043;-76
2021/06/24 05:13:27;;;;;;;0.50;0.50;;;15.10;73.70;;;;;;4971203;28;20098;-76
2021/06/24 05:15:53;;;;;;;0.45;0.45;;;15.20;73.80;;;;;;4964669;28;20112;-76
2021/06/24 05:18:19;;;;;;;0.80;0.60;;;15.20;73.70;;;;;;4969449;28;20065;-77
2021/06/24 05:20:46;;;;;;;0.63;0.50;;;15.30;73.80;;;;;;4972032;28;20050;-76
2021/06/24 05:23:14;;;;;;;0.40;0.40;;;15.30;73.70;;;;;;4972762;28;20113;-76
2021/06/24 05:25:41;;;;;;;0.60;0.50;;;15.30;73.70;;;;;;4956418;28;20063;-75
2021/06/24 05:28:07;;;;;;;0.50;0.50;;;15.30;73.70;;;;;;4939542;28;20477;-76
2021/06/24 05:30:34;;;;;;;0.65;0.57;;;15.30;73.60;;;;;;4957560;28;20098;-76
2021/06/24 05:32:59;;;;;;;1.20;0.70;;;15.30;73.70;;;;;;4962828;28;20126;-76
2021/06/24 05:35:25;;;;;;;1.08;0.70;;;15.30;73.60;;;;;;4956078;28;20485;-76
2021/06/24 05:37:51;;;;;;;0.40;0.40;;;15.40;73.70;;;;;;4969391;28;20045;-76
2021/06/24 05:40:16;;;;;;;0.73;0.45;;;15.40;73.70;;;;;;4956957;28;20039;-76
2021/06/24 05:42:42;;;;;;;0.50;0.50;;;15.40;73.70;;;;;;4955847;28;20043;-76
2021/06/24 05:45:08;;;;;;;0.57;0.50;;;15.40;73.70;;;;;;4955783;28;20035;-76
2021/06/24 05:47:34;;;;;;;0.85;0.60;;;15.40;73.70;;;;;;4957995;28;20047;-76
2021/06/24 05:50:00;;;;;;;0.57;0.50;;;15.40;74.30;;;;;;4941137;28;20482;-76
2021/06/24 05:52:26;;;;;;;0.47;0.47;;;15.30;73.60;;;;;;4973215;28;20038;-76
2021/06/24 05:54:52;;;;;;;0.55;0.55;;;15.40;73.60;;;;;;4973606;28;20039;-77
2021/06/24 05:57:17;;;;;;;0.60;0.60;;;15.50;73.70;;;;;;4968394;28;20046;-76
2021/06/24 05:59:43;;;;;;;0.40;0.40;;;15.40;73.70;;;;;;4955490;28;20109;-77
2021/06/24 06:02:09;;;;;;;0.60;0.60;;;15.40;73.70;;;;;;4955461;28;20055;-76
2021/06/24 06:04:38;;;;;;;0.60;0.60;;;15.50;74.40;;;;;;4979571;28;20046;-77
2021/06/24 06:07:04;;;;;;;0.88;0.65;;;15.60;73.80;;;;;;4946988;28;20497;-76
2021/06/24 06:09:30;;;;;;;0.70;0.60;;;15.50;73.70;;;;;;4943554;28;20067;-76
2021/06/24 06:11:56;;;;;;;1.10;0.70;;;15.50;73.70;;;;;;4956682;28;20083;-75
2021/06/24 06:14:22;;;;;;;0.77;0.52;;;15.60;73.60;;;;;;4971551;28;20035;-76
2021/06/24 06:16:47;;;;;;;0.55;0.55;;;15.60;73.60;;;;;;4970825;28;20113;-76
2021/06/24 06:19:13;;;;;;;0.50;0.50;;;15.60;73.50;;;;;;4955209;28;20146;-77
2021/06/24 06:21:39;;;;;;;0.40;0.40;;;15.70;73.50;;;;;;4970262;28;20046;-76
2021/06/24 06:24:05;;;;;;;0.60;0.60;;;15.70;73.30;;;;;;4960270;28;20054;-77
2021/06/24 06:26:31;;;;;;;0.52;0.52;;;15.80;73.30;;;;;;4975275;28;20054;-78
2021/06/24 06:29:03;;;;;;;0.80;0.70;;;15.80;73.20;;;;;;4943213;28;20074;-78
2021/06/24 06:31:30;;;;;;;0.60;0.60;;;15.80;73.10;;;;;;4957567;28;20532;-78
2021/06/24 06:33:56;;;;;;;0.40;0.40;;;15.80;73.10;;;;;;4966977;28;20098;-78
2021/06/24 06:36:21;;;;;;;0.68;0.50;;;15.90;73.20;;;;;;4969703;28;20481;-78
2021/06/24 06:38:47;;;;;;;1.33;0.60;;;15.90;73.00;;;;;;4938009;28;20062;-78
2021/06/24 06:41:20;;;;;;;1.20;0.70;;;16.00;73.00;;;;;;4956772;28;20035;-83
2021/06/24 06:43:51;;;;;;;0.50;0.50;;;16.00;72.80;;;;;;4937594;28;20498;-82
2021/06/24 06:47:15;;;;;;;1.10;0.57;;;16.10;72.80;;;;;;4936694;28;20047;-81
2021/06/24 06:50:00;;;;;;;0.50;0.50;;;16.10;72.80;;;;;;4875173;29;20068;-82
2021/06/24 06:52:26;;;;;;;0.47;0.47;;;16.10;72.60;;;;;;4882770;29;20052;-81
2021/06/24 06:54:52;;;;;;;0.57;0.55;;;16.20;72.50;;;;;;4849988;29;20045;-81
2021/06/24 06:57:18;;;;;;;1.05;0.60;;;16.20;72.50;;;;;;4880662;29;20085;-80
2021/06/24 06:59:54;;;;;;;0.75;0.55;;;16.30;72.40;;;;;;4899846;29;20052;-83
2021/06/24 07:02:19;;;;;;;0.63;0.60;;;16.40;72.30;;;;;;4895858;29;20048;-82
2021/06/24 07:04:45;;;;;;;0.68;0.60;;;16.50;72.20;;;;;;4897080;29;20495;-83
2021/06/24 07:07:11;;;;;;;0.50;0.50;;;16.50;72.10;;;;;;4864405;29;20049;-81
2021/06/24 07:09:36;;;;;;;0.55;0.55;;;16.50;72.00;;;;;;4882129;29;20443;-79
2021/06/24 07:12:02;;;;;;;0.75;0.57;;;16.40;71.80;;;;;;4899150;29;20044;-81
2021/06/24 07:14:28;;;;;;;0.60;0.60;;;16.60;71.80;;;;;;4895905;29;20064;-80
2021/06/24 07:16:54;;;;;;;0.63;0.60;;;16.60;71.80;;;;;;4896083;29;20069;-78
2021/06/24 07:19:19;;;;;;;1.50;0.55;;;16.70;71.70;;;;;;4917120;28;20097;-80
2021/06/24 07:21:45;;;;;;;0.45;0.45;;;16.80;71.50;;;;;;4966958;28;20039;-77
2021/06/24 07:24:11;;;;;;;0.50;0.50;;;16.90;71.30;;;;;;4955000;28;20047;-77
2021/06/24 07:26:39;;;;;;;0.85;0.57;;;16.90;71.20;;;;;;4954822;28;20397;-78
2021/06/24 07:29:05;;;;;;;1.30;0.70;;;16.90;71.20;;;;;;4955328;28;20036;-79
2021/06/24 07:31:34;;;;;;;0.88;0.55;;;17.10;71.30;;;;;;4954695;28;20053;-81
2021/06/24 07:35:00;;;;;;;0.50;0.50;;;17.00;71.30;;;;;;4953009;28;20079;-80
2021/06/24 07:37:26;;;;;;;1.55;0.50;;;17.20;71.20;;;;;;4894482;29;20045;-81
2021/06/24 07:39:54;;;;;;;0.45;0.45;;;17.20;71.00;;;;;;4892618;29;20052;-82
2021/06/24 07:42:35;;;;;;;0.40;0.40;;;17.20;70.90;;;;;;4854011;29;20044;-83
2021/06/24 07:45:08;;;;;;;0.82;0.52;;;17.20;71.00;;;;;;4856048;29;20551;-83
2021/06/24 07:47:34;;;;;;;0.90;0.40;;;17.20;70.90;;;;;;4860708;29;20585;-80
2021/06/24 07:50:00;;;;;;;0.88;0.60;;;17.40;70.90;;;;;;4879610;29;20064;-80
2021/06/24 07:52:26;;;;;;;0.90;0.50;;;17.40;70.70;;;;;;4878742;29;20049;-79
2021/06/24 07:57:47;;;;;;;0.70;0.70;;;17.40;70.60;;;;;;4849227;29;20106;-81
2021/06/24 08:00:14;;;;;;;0.68;0.60;;;17.50;70.70;;;;;;4825803;29;20141;-80
2021/06/24 08:02:40;;;;;;;0.60;0.60;;;17.50;70.70;;;;;;4824082;29;20099;-80
2021/06/24 08:05:07;;;;;;;0.85;0.70;;;17.40;70.70;;;;;;4839638;29;20054;-81
2021/06/24 08:07:34;;;;;;;0.70;0.52;;;17.60;70.70;;;;;;4851624;29;20251;-80
2021/06/24 08:10:03;;;;;;;0.63;0.63;;;17.60;70.50;;;;;;4881849;29;20047;-81
2021/06/24 08:12:42;;;;;;;0.50;0.40;;;17.80;70.60;;;;;;4913535;29;20036;-81
2021/06/24 08:15:09;;;;;;;0.50;0.50;;;17.80;70.40;;;;;;4881026;29;20040;-80
2021/06/24 08:17:35;;;;;;;1.08;0.63;;;17.80;70.30;;;;;;4880446;29;20045;-79
2021/06/24 08:20:01;;;;;;;0.50;0.40;;;17.80;70.30;;;;;;4879459;29;20119;-81
2021/06/24 08:22:28;;;;;;;0.50;0.40;;;17.80;70.40;;;;;;4904647;29;20047;-79
2021/06/24 08:24:54;;;;;;;0.40;0.40;;;17.80;70.40;;;;;;4917142;29;20139;-81
2021/06/24 08:27:20;;;;;;;0.50;0.50;;;17.80;71.00;;;;;;4917160;29;20122;-83
2021/06/24 08:29:46;;;;;;;0.80;0.52;;;17.90;70.50;;;;;;4886026;29;20039;-80
2021/06/24 08:32:11;;;;;;;0.63;0.57;;;17.90;70.40;;;;;;4901946;29;20075;-80
2021/06/24 08:34:38;;;;;;;0.52;0.52;;;18.00;70.30;;;;;;4891398;29;20502;-79
2021/06/24 08:37:04;;;;;;;0.47;0.47;;;18.00;70.30;;;;;;4921333;29;20048;-79
2021/06/24 08:39:30;;;;;;;0.40;0.40;;;18.00;70.30;;;;;;4937592;28;20070;-79
2021/06/24 08:41:56;;;;;;;0.50;0.50;;;18.00;70.20;;;;;;4942410;28;20046;-79
2021/06/24 08:44:22;;;;;;;0.70;0.50;;;18.00;70.10;;;;;;4976685;28;20408;-80
2021/06/24 08:46:51;;;;;;;0.50;0.50;;;18.10;70.10;;;;;;4983583;28;20039;-78
2021/06/24 08:49:24;;;;;;;0.55;0.45;;;18.00;70.00;;;;;;4946284;28;20096;-79
2021/06/24 08:51:52;;;;;;;0.35;0.35;;;18.00;70.00;;;;;;4961615;28;20024;-78
2021/06/24 08:54:19;;;;;;;0.73;0.52;;;18.00;70.00;;;;;;4975605;28;20109;-79
2021/06/24 08:56:45;;;;;;;0.60;0.60;;;18.10;70.10;;;;;;4962330;28;20041;-78
2021/06/24 08:59:11;;;;;;;1.60;0.55;;;18.20;70.10;;;;;;4980376;28;20598;-79
2021/06/24 09:01:54;;;;;;;0.82;0.70;;;18.10;70.00;;;;;;4976298;28;20055;-79
2021/06/24 09:04:23;;;;;;;0.47;0.40;;;18.10;69.90;;;;;;4978230;28;20039;-80
2021/06/24 09:06:50;;;;;;;0.45;0.45;;;18.10;69.90;;;;;;4957006;28;20015;-79
2021/06/24 09:09:27;;;;;;;0.50;0.50;;;18.00;69.90;;;;;;4982054;28;20054;-78
2021/06/24 09:12:03;;;;;;;0.50;0.50;;;18.00;69.90;;;;;;4947111;28;20438;-78
2021/06/24 09:14:50;;;;;;;0.70;0.70;;;18.00;70.00;;;;;;4979148;28;20086;-79
2021/06/24 09:17:42;;;;;;;0.43;0.40;;;18.10;70.00;;;;;;4963943;28;20055;-78
2021/06/24 09:20:29;;;;;;;0.45;0.45;;;18.10;69.90;;;;;;4962521;28;20051;-78
2021/06/24 09:23:18;;;;;;;0.60;0.60;;;18.10;69.80;;;;;;4951830;28;20035;-78
2021/06/24 09:25:48;;;;;;;0.47;0.47;;;18.00;69.80;;;;;;4958647;28;20465;-78
2021/06/24 09:28:14;;;;;;;;;;;18.00;69.90;;;;;;4962722;28;20505;-79
2021/06/24 09:30:42;;;;;;;0.75;0.70;;;18.10;70.00;;;;;;4972312;28;19914;-80
2021/06/24 09:33:12;;;;;;;0.73;0.73;;;18.00;70.20;;;;;;4977555;28;20466;-79
2021/06/24 09:35:43;;;;;;;1.25;0.82;;;18.00;70.00;;;;;;4971538;28;20473;-79
2021/06/24 09:38:13;;;;;;;0.40;0.40;;;18.00;70.10;;;;;;4960242;28;20093;-78
2021/06/24 09:40:55;;;;;;;0.68;0.68;;;17.90;70.20;;;;;;4972171;28;20031;-79
2021/06/24 09:43:33;;;;;;;0.60;0.60;;;18.00;70.20;;;;;;4959328;28;20036;-79
2021/06/24 09:46:14;;;;;;;0.93;0.70;;;18.00;70.10;;;;;;4966681;28;20035;-78
2021/06/24 09:48:41;;;;;;;;;;;17.90;70.00;;;;;;4980826;28;20039;-78
2021/06/24 09:51:32;;;;;;;0.43;0.43;;;17.90;70.20;;;;;;4960512;28;19914;-78
2021/06/24 09:53:59;;;;;;;2.20;0.63;;;17.90;70.20;;;;;;4957483;28;20114;-77
2021/06/24 09:56:44;;;;;;;0.82;0.40;;;17.90;70.10;;;;;;4956521;28;20398;-77
2021/06/24 09:59:12;;;;;;;0.38;0.38;;;17.90;70.20;;;;;;4976915;28;20042;-78
2021/06/24 10:01:43;;;;;;;0.57;0.57;;;18.00;70.20;;;;;;4973882;28;20066;-78
2021/06/24 10:04:28;;;;;;;0.50;0.50;;;17.90;70.10;;;;;;4957556;28;20098;-79
2021/06/24 10:06:56;;;;;;;0.45;0.45;;;18.00;70.20;;;;;;4957598;28;20066;-79
2021/06/24 10:09:24;;;;;;;1.38;0.70;;;18.00;70.20;;;;;;4955950;28;20046;-79
2021/06/24 10:11:50;;;;;;;0.75;0.60;;;18.00;70.10;;;;;;4963860;28;20047;-77
2021/06/24 10:14:16;;;;;;;1.08;0.80;;;18.00;70.00;;;;;;4958446;28;20039;-77
2021/06/24 10:16:47;;;;;;;0.60;0.60;;;18.00;70.00;;;;;;4963077;28;20042;-78
2021/06/24 10:19:15;;;;;;;0.57;0.57;;;18.10;70.00;;;;;;4964211;28;20074;-76
2021/06/24 10:21:41;;;;;;;0.90;0.75;;;18.10;69.90;;;;;;4940173;28;20133;-75
2021/06/24 10:24:12;;;;;;;0.80;0.70;;;18.20;69.80;;;;;;4966128;28;20078;-76
2021/06/24 10:26:43;;;;;;;0.55;0.55;;;18.20;69.60;;;;;;4971891;28;20033;-76
2021/06/24 10:29:09;;;;;;;;;;;18.30;69.50;;;;;;4961796;28;20110;-75
2021/06/24 10:31:38;;;;;;;0.40;0.40;;;18.30;69.50;;;;;;4964719;28;19941;-77
2021/06/24 10:34:04;;;;;;;0.77;0.70;;;18.30;69.40;;;;;;4979933;28;20046;-77
2021/06/24 10:36:32;;;;;;;0.57;0.57;;;18.30;69.40;;;;;;4967700;28;20430;-77
2021/06/24 10:38:59;;;;;;;0.50;0.50;;;18.30;69.40;;;;;;4948836;28;20039;-76
2021/06/24 10:41:25;;;;;;;0.57;0.57;;;18.30;69.20;;;;;;4965965;28;20098;-76
2021/06/24 10:43:53;;;;;;;0.77;0.63;;;18.30;69.20;;;;;;4948224;28;20063;-76
2021/06/24 10:46:22;;;;;;;1.00;0.70;;;18.40;69.20;;;;;;4980963;28;20054;-78
2021/06/24 10:48:48;;;;;;;0.68;0.68;;;18.40;69.20;;;;;;4964123;28;20043;-76
2021/06/24 10:51:16;;;;;;;0.70;0.70;;;18.40;69.20;;;;;;4959904;28;20110;-74
2021/06/24 10:53:46;;;;;;;0.73;0.73;;;18.40;69.40;;;;;;4973115;28;20050;-76
2021/06/24 10:56:29;;;;;;;0.70;0.70;;;18.40;69.40;;;;;;4942151;28;20047;-74
2021/06/24 10:58:59;;;;;;;0.98;0.75;;;18.40;69.30;;;;;;4962588;28;20047;-76
2021/06/24 11:01:44;;;;;;;1.15;0.80;;;18.40;69.30;;;;;;4949654;28;20047;-76
2021/06/24 11:04:29;;;;;;;0.50;0.50;;;18.50;69.20;;;;;;4975412;28;20082;-76
2021/06/24 11:06:58;;;;;;;0.50;0.50;;;18.40;69.20;;;;;;4951051;29;20071;-76
2021/06/24 11:09:24;;;;;;;0.45;0.45;;;18.50;69.30;;;;;;4945348;28;20130;-77
2021/06/24 11:11:49;;;;;;;1.00;0.80;;;18.50;69.20;;;;;;4981411;28;20066;-77
2021/06/24 11:14:35;;;;;;;0.70;0.70;;;18.60;69.10;;;;;;4960232;28;20494;-76
2021/06/24 11:17:41;;;;;;;1.95;0.80;;;18.50;69.10;;;;;;4944051;28;20035;-77
2021/06/24 11:20:18;;;;;;;0.50;0.50;;;18.50;69.10;;;;;;4963650;28;20047;-77
2021/06/24 11:22:48;;;;;;;1.63;0.60;;;18.50;69.20;;;;;;4968232;28;20039;-77
2021/06/24 11:25:14;;;;;;;0.70;0.70;;;18.50;69.20;;;;;;4967816;28;20051;-77
2021/06/24 11:27:40;;;;;;;1.10;0.77;;;18.50;69.30;;;;;;4966479;28;20097;-77
2021/06/24 11:30:07;;;;;;;0.70;0.70;;;18.50;69.30;;;;;;4937596;28;20513;-77
2021/06/24 11:32:38;;;;;;;0.73;0.70;;;18.50;69.20;;;;;;4955689;28;20035;-77
2021/06/24 11:35:16;;;;;;;0.70;0.70;;;18.60;69.20;;;;;;4968843;28;20509;-77
2021/06/24 11:37:42;;;;;;;1.05;0.70;;;18.60;69.00;;;;;;4971790;28;20409;-77
2021/06/24 11:40:10;;;;;;;0.60;0.60;;;18.60;69.00;;;;;;4962175;28;20034;-77
2021/06/24 11:42:42;;;;;;;0.47;0.47;;;18.60;69.00;;;;;;4938065;29;20054;-75
2021/06/24 11:45:10;;;;;;;0.60;0.60;;;18.60;69.00;;;;;;4958108;28;20098;-77
2021/06/24 11:47:38;;;;;;;0.80;0.80;;;18.60;69.10;;;;;;4965089;28;20047;-78
2021/06/24 12:01:55;;;;;;;2.85;1.10;;;18.70;69.20;;;;;;4958387;28;20122;-77
2021/06/24 12:04:24;;;;;;;0.95;0.90;;;18.70;69.10;;;;;;4954038;28;20080;-77
2021/06/24 12:06:58;;;;;;;0.85;0.63;;;18.80;69.00;;;;;;4970037;28;20389;-77
2021/06/24 12:09:27;;;;;;;0.90;0.80;;;18.80;69.10;;;;;;4921581;28;20389;-77
2021/06/24 12:11:55;;;;;;;0.73;0.50;;;18.80;69.10;;;;;;4967973;28;20390;-77
2021/06/24 12:14:24;;;;;;;0.85;0.60;;;18.80;68.90;;;;;;4953785;28;20044;-76
2021/06/24 12:17:15;;;;;;;0.40;0.40;;;18.90;68.90;;;;;;4953678;28;20501;-73
2021/06/24 12:19:56;;;;;;;0.63;0.63;;;19.00;68.80;;;;;;4936351;28;20035;-77
2021/06/24 12:22:43;;;;;;;0.60;0.60;;;19.00;68.80;;;;;;4964800;28;20032;-77
2021/06/24 12:25:20;;;;;;;0.60;0.60;;;19.00;68.80;;;;;;4953604;28;20396;-76
2021/06/24 12:27:54;;;;;;;1.67;0.80;;;18.90;69.00;;;;;;4936281;28;20035;-77
2021/06/24 12:30:26;;;;;;;0.68;0.68;;;18.80;69.00;;;;;;4953948;28;20379;-77
2021/06/24 12:32:56;;;;;;;0.60;0.60;;;18.90;69.20;;;;;;4966720;28;20370;-77
2021/06/24 12:35:26;;;;;;;1.08;0.63;;;18.80;69.20;;;;;;4953645;28;20070;-76
2021/06/24 12:37:55;;;;;;;0.88;0.80;;;18.80;69.30;;;;;;4954694;28;20039;-77
2021/06/24 12:40:22;;;;;;;0.93;0.80;;;18.90;69.30;;;;;;4966037;28;20483;-78
2021/06/24 12:42:54;;;;;;;2.13;0.70;;;19.20;69.20;;;;;;4953056;28;20102;-77
2021/06/24 12:45:25;;;;;;;1.15;0.80;;;19.20;68.80;;;;;;4960708;28;20039;-77
2021/06/24 12:47:51;;;;;;;1.17;0.80;;;19.30;68.70;;;;;;4937864;28;20126;-75
2021/06/24 12:50:24;;;;;;;1.20;1.10;;;19.40;68.50;;;;;;4953129;28;20051;-75
2021/06/24 12:52:54;;;;;;;0.80;0.80;;;19.50;68.40;;;;;;4948694;28;20039;-75
2021/06/24 12:55:37;;;;;;;0.80;0.60;;;19.40;68.30;;;;;;4953960;28;20051;-76
2021/06/24 12:58:12;;;;;;;0.85;0.85;;;19.40;68.30;;;;;;4954032;28;20063;-76
2021/06/24 13:00:39;;;;;;;1.20;0.90;;;19.50;68.40;;;;;;4951669;28;20490;-76
2021/06/24 13:03:06;;;;;;;2.70;0.80;;;19.60;68.30;;;;;;4953169;28;20129;-76
2021/06/24 13:05:35;;;;;;;0.80;0.80;;;19.60;68.10;;;;;;4953139;28;20516;-77
2021/06/24 13:08:05;;;;;;;0.80;0.80;;;19.60;68.00;;;;;;4953719;28;20035;-73
2021/06/24 13:10:49;;;;;;;0.90;0.80;;;19.60;68.10;;;;;;4953482;28;20035;-76